Aloha, Louisiana
Current Conditions -  °F | °C
As of 9:53 AM on Thursday 30 Oct 2014 (Local Time) from KAEX Reporting Station
Clear Clear  
Wind Chill: 60°   Ceiling: Unl
Heat Index: 60°   Visibility: 10mi
Dew Point: 49°   Wind: 6mph
Humidity: 67%   Direction: 80°E
Pressure: 30.16"   Gusts: NA
Location:  31.503°N, 92.6476°W
Report Text: KAEX 301453Z AUTO 08005KT 10SM CLR 16/09 A3016 RMK AO2 SLP217 T01560094 51011
Loading
Personal Weather Stations






























Interactive Weather Map New forecast layout! Learn more

10-Day Weather Forecast

Advertisements
Track Severe Weather on mobile